createdAt,value
2018-11-27T00:00:30.361Z,96157.49
2018-11-27T00:02:58.547Z,96154.61
2018-11-27T00:05:26.031Z,96152.56
2018-11-27T00:07:53.326Z,96154.41
2018-11-27T00:10:20.564Z,96160.38
2018-11-27T00:12:47.840Z,96163.50
2018-11-27T00:15:15.090Z,96168.44
2018-11-27T00:17:42.390Z,96167.68
2018-11-27T00:20:10.615Z,96169.63
2018-11-27T00:22:38.161Z,96169.10
2018-11-27T00:25:07.894Z,96171.84
2018-11-27T00:27:35.150Z,96171.52
2018-11-27T00:30:02.427Z,96173.03
2018-11-27T00:32:29.586Z,96178.78
2018-11-27T00:34:56.977Z,96183.56
2018-11-27T00:37:24.244Z,96180.23
2018-11-27T00:39:51.408Z,96185.17
2018-11-27T00:42:18.784Z,96184.92
2018-11-27T00:44:46.056Z,96191.14
2018-11-27T00:47:13.308Z,96192.81
2018-11-27T00:49:40.595Z,96192.81
2018-11-27T00:52:07.803Z,96193.62
2018-11-27T00:54:35.062Z,96198.19
2018-11-27T00:57:02.317Z,96187.02
2018-11-27T00:59:30.481Z,96210.33
2018-11-27T01:01:57.837Z,96211.67
2018-11-27T01:04:25.138Z,96220.48
2018-11-27T01:06:52.436Z,96216.56
2018-11-27T01:09:19.679Z,96219.95
2018-11-27T01:11:46.951Z,96226.19
2018-11-27T01:14:14.182Z,96228.82
2018-11-27T01:16:41.448Z,96165.30
2018-11-27T01:19:08.693Z,96234.06
2018-11-27T01:21:36.538Z,96231.17
2018-11-27T01:24:03.911Z,96231.34
2018-11-27T01:26:31.205Z,96236.44
2018-11-27T01:28:58.409Z,96236.97
2018-11-27T01:31:25.670Z,96238.48
2018-11-27T01:33:52.888Z,96241.81
2018-11-27T01:36:20.149Z,96242.89
2018-11-27T01:38:47.417Z,96239.88
2018-11-27T01:41:14.690Z,96241.70
2018-11-27T01:43:41.894Z,96238.73
2018-11-27T01:46:09.195Z,96245.39
2018-11-27T01:48:36.455Z,96249.27
2018-11-27T01:51:03.771Z,96246.32
2018-11-27T01:53:31.130Z,96254.22
2018-11-27T01:55:58.352Z,96253.14
2018-11-27T01:58:28.934Z,96250.63
2018-11-27T02:01:01.367Z,96248.56
2018-11-27T02:03:28.602Z,96246.37
2018-11-27T02:05:55.812Z,96252.87
2018-11-27T02:08:23.099Z,96255.45
2018-11-27T02:10:50.589Z,96256.78
2018-11-27T02:13:17.865Z,96261.79
2018-11-27T02:15:45.200Z,96257.05
2018-11-27T02:18:12.490Z,96259.27
2018-11-27T02:20:39.728Z,96259.05
2018-11-27T02:23:07.208Z,96255.92
2018-11-27T02:25:34.427Z,96258.45
2018-11-27T02:28:01.662Z,96258.23
2018-11-27T02:30:28.900Z,96253.72
2018-11-27T02:32:56.269Z,96260.44
2018-11-27T02:35:26.104Z,96259.64
2018-11-27T02:37:55.292Z,96258.77
2018-11-27T02:40:22.529Z,96260.32
2018-11-27T02:42:49.854Z,96258.35
2018-11-27T02:45:18.149Z,96259.35
2018-11-27T02:47:46.004Z,96262.42
2018-11-27T02:50:14.400Z,96260.11
2018-11-27T02:52:41.685Z,96260.44
2018-11-27T02:55:12.895Z,96261.34
2018-11-27T02:57:40.314Z,96265.76
2018-11-27T03:00:10.075Z,96269.19
2018-11-27T03:02:37.358Z,96265.76
2018-11-27T03:05:07.016Z,96261.84
2018-11-27T03:07:34.264Z,96268.81
2018-11-27T03:10:01.608Z,96268.08
2018-11-27T03:12:28.903Z,96267.25
2018-11-27T03:15:03.564Z,96268.16
2018-11-27T03:17:30.810Z,96271.23
2018-11-27T03:19:58.049Z,96273.34
2018-11-27T03:22:25.524Z,96252.70
2018-11-27T03:24:52.802Z,96273.45
2018-11-27T03:27:20.088Z,96275.86
2018-11-27T03:29:47.384Z,96272.03
2018-11-27T03:32:14.637Z,96271.61
2018-11-27T03:34:42.396Z,96275.41
2018-11-27T03:37:09.831Z,96286.16
2018-11-27T03:39:37.170Z,96284.54
2018-11-27T03:42:04.616Z,96290.77
2018-11-27T03:44:31.901Z,96288.43
2018-11-27T03:46:59.064Z,96290.95
2018-11-27T03:49:26.332Z,96290.69
2018-11-27T03:51:53.593Z,96297.34
2018-11-27T03:54:20.781Z,96300.62
2018-11-27T03:56:48.048Z,96298.68
2018-11-27T03:59:15.264Z,96303.89
2018-11-27T04:01:42.453Z,96304.75
2018-11-27T04:04:10.209Z,96304.95
2018-11-27T04:06:37.043Z,96305.59
2018-11-27T04:09:08.212Z,96306.33
2018-11-27T04:11:35.593Z,96304.37
2018-11-27T04:14:02.857Z,96311.86
2018-11-27T04:16:30.144Z,96315.05
2018-11-27T04:18:57.414Z,96313.88
2018-11-27T04:21:24.687Z,96310.43
2018-11-27T04:23:51.952Z,96318.31
2018-11-27T04:26:19.183Z,96315.34
2018-11-27T04:28:46.406Z,96318.92
2018-11-27T04:31:13.681Z,96318.92
2018-11-27T04:33:40.927Z,96321.44
2018-11-27T04:36:08.201Z,96319.63
2018-11-27T04:38:35.454Z,96322.03
2018-11-27T04:41:02.744Z,96325.05
2018-11-27T04:43:29.956Z,96323.17
2018-11-27T04:45:57.247Z,96332.20
2018-11-27T04:48:24.542Z,96331.88
2018-11-27T04:50:51.802Z,96333.34
2018-11-27T04:53:19.100Z,96332.34
2018-11-27T04:55:46.342Z,96333.80
2018-11-27T04:58:13.611Z,96335.23
2018-11-27T05:00:40.902Z,96336.88
2018-11-27T05:03:08.184Z,96333.77
2018-11-27T05:05:35.441Z,96344.20
2018-11-27T05:08:02.764Z,96344.81
2018-11-27T05:10:30.077Z,96343.73
2018-11-27T05:12:57.346Z,96345.95
2018-11-27T05:15:25.564Z,96348.91
2018-11-27T05:17:55.031Z,96344.72
2018-11-27T05:20:22.297Z,96352.34
2018-11-27T05:22:49.604Z,96351.14
2018-11-27T05:25:17.714Z,96356.58
2018-11-27T05:27:45.966Z,96362.30
2018-11-27T05:30:21.349Z,96367.78
2018-11-27T05:32:52.370Z,96370.59
2018-11-27T05:35:20.967Z,96304.28
2018-11-27T05:37:51.338Z,96371.14
2018-11-27T05:40:22.771Z,96381.13
2018-11-27T05:42:52.210Z,96377.08
2018-11-27T05:45:20.332Z,96381.65
2018-11-27T05:47:47.581Z,96376.42
2018-11-27T05:50:16.006Z,96383.25
2018-11-27T05:52:43.476Z,96381.81
2018-11-27T05:55:11.571Z,96388.20
2018-11-27T05:57:39.150Z,96388.53
2018-11-27T06:00:19.273Z,96388.84
2018-11-27T06:02:47.487Z,96406.84
2018-11-27T06:05:18.677Z,96406.05
2018-11-27T06:07:46.052Z,96400.52
2018-11-27T06:10:15.360Z,96401.69
2018-11-27T06:12:42.801Z,96403.11
2018-11-27T06:15:18.105Z,96413.80
2018-11-27T06:17:46.518Z,96418.16
2018-11-27T06:20:16.887Z,96406.31
2018-11-27T06:22:44.197Z,96412.75
2018-11-27T06:25:13.718Z,96420.09
2018-11-27T06:27:40.986Z,96425.25
2018-11-27T06:30:13.110Z,96428.34
2018-11-27T06:32:40.452Z,96429.05
2018-11-27T06:35:08.962Z,96423.27
2018-11-27T06:37:36.225Z,96430.16
2018-11-27T06:40:06.695Z,96428.23
2018-11-27T06:42:33.960Z,96433.12
2018-11-27T06:45:01.337Z,96431.95
2018-11-27T06:47:28.623Z,96436.27
2018-11-27T06:49:56.449Z,96442.03
2018-11-27T06:52:23.718Z,96444.97
2018-11-27T06:54:50.957Z,96444.40
2018-11-27T06:57:18.234Z,96440.72
2018-11-27T06:59:45.536Z,96451.74
2018-11-27T07:02:12.852Z,96455.30
2018-11-27T07:04:40.049Z,96455.30
2018-11-27T07:07:07.304Z,96466.58
2018-11-27T07:09:34.583Z,96467.02
2018-11-27T07:12:01.792Z,96469.41
2018-11-27T07:14:29.062Z,96476.17
2018-11-27T07:16:56.273Z,96481.72
2018-11-27T07:19:23.512Z,96489.97
2018-11-27T07:21:50.773Z,96491.75
2018-11-27T07:24:18.126Z,96492.03
2018-11-27T07:26:45.371Z,96494.22
2018-11-27T07:29:16.611Z,96500.72
2018-11-27T07:31:46.865Z,96510.13
2018-11-27T07:34:14.337Z,96512.81
2018-11-27T07:36:42.114Z,96519.44
2018-11-27T07:39:09.349Z,96527.31
2018-11-27T07:41:36.992Z,96525.77
2018-11-27T07:44:04.948Z,96532.50
2018-11-27T07:46:32.166Z,96535.02
2018-11-27T07:48:59.383Z,96533.08
2018-11-27T07:51:26.836Z,96530.98
2018-11-27T07:54:00.182Z,96535.38
2018-11-27T07:56:27.458Z,96541.64
2018-11-27T07:58:54.656Z,96543.73
2018-11-27T08:01:21.927Z,96542.69
2018-11-27T08:03:49.245Z,96544.11
2018-11-27T08:06:16.455Z,96545.31
2018-11-27T08:08:43.721Z,96549.90
2018-11-27T08:11:11.016Z,96545.12
2018-11-27T08:13:38.337Z,96547.51
2018-11-27T08:16:05.698Z,96552.89
2018-11-27T08:18:32.962Z,96559.34
2018-11-27T08:21:00.191Z,96562.22
2018-11-27T08:23:27.447Z,96564.88
2018-11-27T08:25:54.736Z,96563.78
2018-11-27T08:28:21.982Z,96480.09
2018-11-27T08:30:49.192Z,96571.33
2018-11-27T08:33:16.455Z,96576.73
2018-11-27T08:35:43.747Z,96581.30
2018-11-27T08:38:12.807Z,96581.11
2018-11-27T08:40:40.078Z,96590.08
2018-11-27T08:43:07.477Z,96585.24
2018-11-27T08:45:34.744Z,96586.58
2018-11-27T08:48:02.055Z,96589.31
2018-11-27T08:50:29.303Z,96595.23
2018-11-27T08:53:04.195Z,96597.72
2018-11-27T08:55:35.180Z,96593.56
2018-11-27T08:58:02.990Z,96598.72
2018-11-27T09:00:30.203Z,96601.68
2018-11-27T09:02:57.495Z,96597.08
2018-11-27T09:05:24.729Z,96599.08
2018-11-27T09:07:51.948Z,96591.50
2018-11-27T09:10:20.583Z,96593.08
2018-11-27T09:12:47.858Z,96599.42
2018-11-27T09:15:16.177Z,96603.10
2018-11-27T09:17:47.039Z,96609.08
2018-11-27T09:20:14.290Z,96619.86
2018-11-27T09:22:41.594Z,96625.53
2018-11-27T09:25:11.041Z,96622.35
2018-11-27T09:27:38.333Z,96626.63
2018-11-27T09:30:10.294Z,96629.88
2018-11-27T09:32:37.573Z,96628.02
2018-11-27T09:35:05.199Z,96632.27
2018-11-27T09:37:32.509Z,96642.88
2018-11-27T09:39:59.794Z,96638.39
2018-11-27T09:42:27.103Z,96644.42
2018-11-27T09:44:54.359Z,96642.71
2018-11-27T09:47:21.623Z,96627.71
2018-11-27T09:49:48.910Z,96641.47
2018-11-27T09:52:16.197Z,96639.00
2018-11-27T09:54:43.496Z,96633.42
2018-11-27T09:57:10.701Z,96636.95
2018-11-27T09:59:37.968Z,96643.77
2018-11-27T10:02:05.569Z,96644.22
2018-11-27T10:04:33.780Z,96652.09
2018-11-27T10:07:01.003Z,96651.05
2018-11-27T10:09:28.306Z,96643.06
2018-11-27T10:11:55.566Z,96646.93
2018-11-27T10:14:22.832Z,96650.28
2018-11-27T10:16:50.100Z,96649.89
2018-11-27T10:19:17.348Z,96657.78
2018-11-27T10:21:44.695Z,96655.06
2018-11-27T10:24:11.988Z,96657.02
2018-11-27T10:26:39.270Z,96656.48
2018-11-27T10:29:06.465Z,96661.52
2018-11-27T10:31:33.741Z,96654.16
2018-11-27T10:34:00.999Z,96655.20
2018-11-27T10:36:28.257Z,96658.30
2018-11-27T10:39:00.927Z,96659.55
2018-11-27T10:41:22.712Z,96654.95
2018-11-27T10:43:50.222Z,96655.34
2018-11-27T10:46:17.441Z,96654.16
2018-11-27T10:48:44.779Z,96650.42
2018-11-27T10:51:12.041Z,96651.34
2018-11-27T10:53:39.291Z,96649.94
2018-11-27T10:56:06.859Z,96648.23
2018-11-27T10:58:34.184Z,96649.86
2018-11-27T11:01:07.058Z,96647.66
2018-11-27T11:03:34.790Z,96654.05
2018-11-27T11:06:02.951Z,96655.83
2018-11-27T11:08:30.218Z,96653.73
2018-11-27T11:10:57.446Z,96659.60
2018-11-27T11:13:24.713Z,96659.60
2018-11-27T11:15:51.936Z,96664.95
2018-11-27T11:18:19.183Z,96665.09
2018-11-27T11:20:46.448Z,96666.66
2018-11-27T11:23:19.322Z,96665.42
2018-11-27T11:25:46.612Z,96662.66
2018-11-27T11:28:16.028Z,96658.83
2018-11-27T11:30:43.291Z,96661.41
2018-11-27T11:33:10.724Z,96659.27
2018-11-27T11:35:43.059Z,96656.97
2018-11-27T11:38:10.318Z,96658.70
2018-11-27T11:40:37.519Z,96659.36
2018-11-27T11:43:07.584Z,96667.34
2018-11-27T11:45:34.890Z,96669.16
2018-11-27T11:48:02.368Z,96676.32
2018-11-27T11:50:31.769Z,96671.93
2018-11-27T11:53:17.274Z,96681.28
2018-11-27T11:55:45.092Z,96678.63
2018-11-27T11:58:12.385Z,96680.25
2018-11-27T12:00:42.720Z,96687.88
2018-11-27T12:03:09.919Z,96691.71
2018-11-27T12:05:37.190Z,96690.84
2018-11-27T12:08:07.814Z,96691.47
2018-11-27T12:10:36.714Z,96689.48
2018-11-27T12:13:05.439Z,96695.67
2018-11-27T12:15:32.720Z,96700.88
2018-11-27T12:18:00.047Z,96701.97
2018-11-27T12:20:27.364Z,96706.66
2018-11-27T12:22:54.643Z,96700.78
2018-11-27T12:25:24.236Z,96640.39
2018-11-27T12:27:49.208Z,96698.90
2018-11-27T12:30:18.609Z,96697.24
2018-11-27T12:32:45.839Z,96704.70
2018-11-27T12:35:13.704Z,96707.58
2018-11-27T12:37:41.085Z,96708.87
2018-11-27T12:40:13.770Z,96712.25
2018-11-27T12:42:41.360Z,96714.83
2018-11-27T12:45:10.416Z,96711.30
2018-11-27T12:47:37.775Z,96711.20
2018-11-27T12:50:08.864Z,96713.69
2018-11-27T12:52:36.550Z,96714.31
2018-11-27T12:55:04.431Z,96713.58
2018-11-27T12:57:31.674Z,96716.64
2018-11-27T13:00:03.998Z,96717.47
2018-11-27T13:02:34.218Z,96721.83
2018-11-27T13:05:01.520Z,96714.22
2018-11-27T13:07:30.574Z,96717.29
2018-11-27T13:09:59.128Z,96720.98
2018-11-27T13:12:26.357Z,96724.52
2018-11-27T13:14:53.606Z,96722.19
2018-11-27T13:17:20.860Z,96723.96
2018-11-27T13:19:48.119Z,96723.73
2018-11-27T13:22:15.470Z,96729.41
2018-11-27T13:24:42.783Z,96727.59
2018-11-27T13:27:10.140Z,96731.80
2018-11-27T13:29:39.765Z,96736.58
2018-11-27T13:32:07.444Z,96732.38
2018-11-27T13:34:38.996Z,96741.41
2018-11-27T13:37:07.753Z,96738.44
2018-11-27T13:39:36.950Z,96742.36
2018-11-27T13:42:05.024Z,96737.58
2018-11-27T13:44:32.322Z,96734.52
2018-11-27T13:46:59.637Z,96733.17
2018-11-27T13:49:27.813Z,96732.36
2018-11-27T13:51:54.143Z,96733.80
2018-11-27T13:54:22.804Z,96735.52
2018-11-27T13:56:50.119Z,96741.53
2018-11-27T13:59:18.509Z,96738.10
2018-11-27T14:01:46.373Z,96742.31
2018-11-27T14:04:13.092Z,96740.87
2018-11-27T14:06:40.342Z,96744.06
2018-11-27T14:09:09.049Z,96752.75
2018-11-27T14:11:36.354Z,96753.77
2018-11-27T14:14:04.649Z,96757.12
2018-11-27T14:16:31.950Z,96763.05
2018-11-27T14:18:59.218Z,96764.34
2018-11-27T14:21:26.471Z,96773.11
2018-11-27T14:23:53.726Z,96770.92
2018-11-27T14:26:20.998Z,96770.92
2018-11-27T14:28:48.244Z,96773.45
2018-11-27T14:31:15.494Z,96777.89
2018-11-27T14:33:42.761Z,96778.80
2018-11-27T14:36:10.108Z,96782.20
2018-11-27T14:38:37.479Z,96785.56
2018-11-27T14:41:04.793Z,96786.76
2018-11-27T14:43:32.047Z,96784.66
2018-11-27T14:45:59.337Z,96789.82
2018-11-27T14:48:26.572Z,96794.72
2018-11-27T14:50:53.787Z,96794.52
2018-11-27T14:53:21.102Z,96801.96
2018-11-27T14:55:48.323Z,96798.70
2018-11-27T14:58:15.569Z,96804.06
2018-11-27T15:00:42.845Z,96809.72
2018-11-27T15:03:10.170Z,96810.19
2018-11-27T15:05:38.382Z,96810.06
2018-11-27T15:08:07.893Z,96822.74
2018-11-27T15:10:35.207Z,96813.16
2018-11-27T15:13:02.432Z,96818.75
2018-11-27T15:15:29.740Z,96818.11
2018-11-27T15:17:57.039Z,96822.70
2018-11-27T15:20:24.310Z,96825.59
2018-11-27T15:22:51.549Z,96835.13
2018-11-27T15:25:18.852Z,96834.62
2018-11-27T15:27:46.215Z,96834.41
2018-11-27T15:30:19.444Z,96833.84
2018-11-27T15:32:46.940Z,96832.66
2018-11-27T15:35:14.299Z,96834.52
2018-11-27T15:37:41.567Z,96839.73
2018-11-27T15:40:14.138Z,96843.59
2018-11-27T15:42:41.434Z,96843.95
2018-11-27T15:45:11.077Z,96845.95
2018-11-27T15:47:38.359Z,96852.28
2018-11-27T15:50:09.378Z,96856.36
2018-11-27T15:52:36.702Z,96852.10
2018-11-27T15:55:13.088Z,96861.55
2018-11-27T15:57:46.433Z,96846.08
2018-11-27T16:00:17.546Z,96862.94
2018-11-27T16:02:45.146Z,96866.97
2018-11-27T16:05:12.839Z,96866.44
2018-11-27T16:07:40.072Z,96866.69
2018-11-27T16:10:09.822Z,96871.84
2018-11-27T16:12:39.443Z,96878.27
2018-11-27T16:15:08.768Z,96881.56
2018-11-27T16:17:37.776Z,96884.88
2018-11-27T16:20:06.969Z,96879.70
2018-11-27T16:22:34.220Z,96887.45
2018-11-27T16:25:05.615Z,96886.73
2018-11-27T16:27:32.859Z,96891.52
2018-11-27T16:30:00.103Z,96891.02
2018-11-27T16:32:27.354Z,96891.73
2018-11-27T16:34:54.911Z,96898.55
2018-11-27T16:37:22.152Z,96908.33
2018-11-27T16:39:49.480Z,96911.30
2018-11-27T16:42:16.656Z,96915.16
2018-11-27T16:44:43.911Z,96915.88
2018-11-27T16:47:11.165Z,96917.84
2018-11-27T16:49:38.409Z,96918.38
2018-11-27T16:52:05.837Z,96912.55
2018-11-27T16:54:33.087Z,96922.23
2018-11-27T16:57:00.297Z,96924.88
2018-11-27T16:59:27.578Z,96928.38
2018-11-27T17:01:54.878Z,96927.16
2018-11-27T17:04:22.147Z,96924.27
2018-11-27T17:06:49.866Z,96931.34
2018-11-27T17:09:17.285Z,96928.16
2018-11-27T17:11:44.596Z,96932.95
2018-11-27T17:14:15.547Z,96930.31
2018-11-27T17:16:43.052Z,96933.23
2018-11-27T17:19:10.342Z,96937.23
2018-11-27T17:21:37.660Z,96939.10
2018-11-27T17:24:05.251Z,96937.81
2018-11-27T17:26:32.528Z,96939.00
2018-11-27T17:28:59.768Z,96936.95
2018-11-27T17:31:27.007Z,96937.99
2018-11-27T17:34:00.686Z,96933.06
2018-11-27T17:36:28.009Z,96934.53
2018-11-27T17:38:55.327Z,96932.42
2018-11-27T17:41:22.539Z,96929.16
2018-11-27T17:43:49.761Z,96938.82
2018-11-27T17:46:17.021Z,96941.79
2018-11-27T17:48:45.085Z,96948.69
2018-11-27T17:51:12.432Z,96954.27
2018-11-27T17:53:39.641Z,96956.80
2018-11-27T17:56:07.555Z,96961.45
2018-11-27T17:58:34.844Z,96953.08
2018-11-27T18:01:02.158Z,96950.62
2018-11-27T18:03:29.429Z,96945.53
2018-11-27T18:05:56.700Z,96948.47
2018-11-27T18:08:24.012Z,96959.97
2018-11-27T18:10:51.420Z,96947.10
2018-11-27T18:13:19.107Z,96946.88
2018-11-27T18:15:46.439Z,96954.44
2018-11-27T18:18:13.738Z,96965.17
2018-11-27T18:20:40.999Z,96964.05
2018-11-27T18:23:08.551Z,96964.80
2018-11-27T18:25:35.780Z,96965.84
2018-11-27T18:28:03.075Z,96977.48
2018-11-27T18:30:30.354Z,96981.03
2018-11-27T18:32:57.675Z,96978.30
2018-11-27T18:35:25.282Z,96979.98
2018-11-27T18:37:52.823Z,96973.80
2018-11-27T18:40:20.314Z,96976.58
2018-11-27T18:42:47.677Z,96981.48
2018-11-27T18:45:34.176Z,96920.29
2018-11-27T18:48:01.406Z,96976.74
2018-11-27T18:50:31.486Z,96967.97
2018-11-27T18:53:02.294Z,96966.39
2018-11-27T18:55:29.570Z,96967.58
2018-11-27T18:57:57.123Z,96961.02
2018-11-27T19:00:25.653Z,96955.73
2018-11-27T19:02:52.955Z,96965.95
2018-11-27T19:05:20.267Z,96960.67
2018-11-27T19:07:47.593Z,96963.90
2018-11-27T19:10:31.886Z,96965.94
2018-11-27T19:12:59.296Z,96973.91
2018-11-27T19:15:44.711Z,96984.97
2018-11-27T19:18:14.562Z,96984.21
2018-11-27T19:20:41.880Z,96992.83
2018-11-27T19:23:09.199Z,96987.84
2018-11-27T19:25:36.365Z,96990.84
2018-11-27T19:28:03.657Z,96994.81
2018-11-27T19:30:32.274Z,96994.45
2018-11-27T19:32:58.184Z,97001.20
2018-11-27T19:35:25.632Z,96995.59
2018-11-27T19:37:52.748Z,97002.63
2018-11-27T19:40:20.371Z,97009.08
2018-11-27T19:42:47.736Z,97004.98
2018-11-27T19:45:17.871Z,97014.59
2018-11-27T19:47:45.105Z,97007.63
2018-11-27T19:50:13.528Z,97000.47
2018-11-27T19:52:41.690Z,97007.77
2018-11-27T19:55:10.516Z,97003.55
2018-11-27T19:57:39.269Z,97002.88
2018-11-27T20:00:10.377Z,97012.61
2018-11-27T20:02:37.673Z,97005.84
2018-11-27T20:05:05.897Z,97013.23
2018-11-27T20:07:33.031Z,97009.12
2018-11-27T20:10:05.352Z,97012.66
2018-11-27T20:12:32.649Z,97022.81
2018-11-27T20:15:01.254Z,97021.76
2018-11-27T20:17:31.255Z,97022.02
2018-11-27T20:19:58.538Z,97017.67
2018-11-27T20:22:29.205Z,97013.96
2018-11-27T20:24:56.453Z,97012.50
2018-11-27T20:27:23.774Z,97012.71
2018-11-27T20:29:51.107Z,97009.41
2018-11-27T20:32:18.345Z,97009.81
2018-11-27T20:34:48.802Z,97005.02
2018-11-27T20:37:16.425Z,97008.20
2018-11-27T20:39:43.644Z,97009.95
2018-11-27T20:42:10.964Z,97005.83
2018-11-27T20:44:40.294Z,97012.79
2018-11-27T20:47:07.634Z,97008.33
2018-11-27T20:49:34.854Z,97013.58
2018-11-27T20:52:02.466Z,97011.38
2018-11-27T20:54:29.648Z,97020.31
2018-11-27T20:56:56.906Z,97015.72
2018-11-27T20:59:24.186Z,97018.45
2018-11-27T21:01:51.459Z,97024.39
2018-11-27T21:04:18.727Z,97032.21
2018-11-27T21:06:46.057Z,97036.37
2018-11-27T21:09:13.346Z,97039.27
2018-11-27T21:11:40.902Z,97038.45
2018-11-27T21:14:08.147Z,97047.12
2018-11-27T21:16:35.372Z,97044.05
2018-11-27T21:19:02.652Z,97040.72
2018-11-27T21:21:29.860Z,97042.80
2018-11-27T21:23:57.072Z,97043.20
2018-11-27T21:26:24.306Z,97030.84
2018-11-27T21:28:52.542Z,97038.34
2018-11-27T21:31:24.148Z,97047.70
2018-11-27T21:33:47.293Z,97042.69
2018-11-27T21:36:14.578Z,97048.79
2018-11-27T21:38:41.854Z,97050.53
2018-11-27T21:41:09.172Z,97048.91
2018-11-27T21:43:36.429Z,97054.60
2018-11-27T21:46:03.897Z,97051.30
2018-11-27T21:48:31.158Z,97056.95
2018-11-27T21:51:01.333Z,97055.95
2018-11-27T21:53:29.106Z,97057.76
2018-11-27T21:55:56.372Z,97049.13
2018-11-27T21:58:23.633Z,97052.52
2018-11-27T22:00:51.065Z,97055.52
2018-11-27T22:03:18.307Z,97054.66
2018-11-27T22:05:45.534Z,97053.02
2018-11-27T22:08:12.772Z,97060.17
2018-11-27T22:10:40.046Z,97056.08
2018-11-27T22:13:09.240Z,97063.79
2018-11-27T22:15:38.919Z,97059.80
2018-11-27T22:18:07.240Z,97061.48
2018-11-27T22:20:34.491Z,97061.86
2018-11-27T22:23:01.778Z,97060.97
2018-11-27T22:25:28.948Z,97045.45
2018-11-27T22:27:56.289Z,97065.44
2018-11-27T22:30:23.556Z,97063.20
2018-11-27T22:32:51.835Z,97066.52
2018-11-27T22:35:19.122Z,97069.72
2018-11-27T22:37:46.384Z,97068.06
2018-11-27T22:40:14.636Z,97067.17
2018-11-27T22:42:42.089Z,97066.27
2018-11-27T22:45:11.499Z,97069.59
2018-11-27T22:47:38.791Z,97070.03
2018-11-27T22:50:09.301Z,97072.29
2018-11-27T22:52:36.711Z,97069.81
2018-11-27T22:55:03.972Z,97058.78
2018-11-27T22:57:31.749Z,97070.73
2018-11-27T22:59:58.979Z,97068.08
2018-11-27T23:02:26.238Z,97073.46
2018-11-27T23:04:53.547Z,97080.91
2018-11-27T23:07:26.452Z,97077.20
2018-11-27T23:09:53.756Z,97072.52
2018-11-27T23:12:21.058Z,97072.82
2018-11-27T23:14:48.349Z,97072.67
2018-11-27T23:17:15.566Z,97076.98
2018-11-27T23:19:42.848Z,97074.32
2018-11-27T23:22:10.186Z,97071.44
2018-11-27T23:24:37.445Z,97066.72
2018-11-27T23:27:04.761Z,97067.97
2018-11-27T23:29:31.988Z,97068.77
2018-11-27T23:31:59.394Z,97064.65
2018-11-27T23:34:26.684Z,97071.45
2018-11-27T23:36:53.906Z,97075.83
2018-11-27T23:39:21.121Z,97072.70
2018-11-27T23:41:48.563Z,97079.84
2018-11-27T23:44:16.012Z,97077.41
2018-11-27T23:46:43.259Z,97081.72
2018-11-27T23:49:10.494Z,97079.19
2018-11-27T23:51:37.780Z,97072.35
2018-11-27T23:54:05.362Z,97073.91
2018-11-27T23:56:32.615Z,97071.95
2018-11-27T23:58:59.897Z,97048.36
